sensor_id;sensor_type;location;lat;lon;timestamp;temperature;humidity
7708;DHT22;3896;48.758;8.888;2022-09-14T00:01:38;20.20;95.70
7708;DHT22;3896;48.758;8.888;2022-09-14T00:04:09;20.20;95.40
7708;DHT22;3896;48.758;8.888;2022-09-14T00:06:36;20.10;95.30
7708;DHT22;3896;48.758;8.888;2022-09-14T00:09:03;20.10;95.30
7708;DHT22;3896;48.758;8.888;2022-09-14T00:11:32;20.10;95.60
7708;DHT22;3896;48.758;8.888;2022-09-14T00:13:59;20.10;95.70
7708;DHT22;3896;48.758;8.888;2022-09-14T00:16:28;20.10;96.10
7708;DHT22;3896;48.758;8.888;2022-09-14T00:18:56;20.10;96.30
7708;DHT22;3896;48.758;8.888;2022-09-14T00:21:24;20.10;96.60
7708;DHT22;3896;48.758;8.888;2022-09-14T00:23:50;20.10;97.00
7708;DHT22;3896;48.758;8.888;2022-09-14T00:26:20;20.10;97.50
7708;DHT22;3896;48.758;8.888;2022-09-14T00:28:54;20.10;97.80
7708;DHT22;3896;48.758;8.888;2022-09-14T00:31:21;20.00;97.40
7708;DHT22;3896;48.758;8.888;2022-09-14T00:33:48;20.00;98.10
7708;DHT22;3896;48.758;8.888;2022-09-14T00:36:19;20.00;98.30
7708;DHT22;3896;48.758;8.888;2022-09-14T00:38:46;20.00;98.40
7708;DHT22;3896;48.758;8.888;2022-09-14T00:41:21;20.00;98.60
7708;DHT22;3896;48.758;8.888;2022-09-14T00:46:41;20.00;97.60
7708;DHT22;3896;48.758;8.888;2022-09-14T00:49:10;20.00;98.40
7708;DHT22;3896;48.758;8.888;2022-09-14T00:51:41;20.00;98.70
7708;DHT22;3896;48.758;8.888;2022-09-14T00:54:08;20.00;98.80
7708;DHT22;3896;48.758;8.888;2022-09-14T00:56:34;20.00;98.30
7708;DHT22;3896;48.758;8.888;2022-09-14T00:59:05;20.00;98.50
7708;DHT22;3896;48.758;8.888;2022-09-14T01:01:32;20.00;98.50
7708;DHT22;3896;48.758;8.888;2022-09-14T01:03:57;20.00;98.80
7708;DHT22;3896;48.758;8.888;2022-09-14T01:06:37;20.00;98.40
7708;DHT22;3896;48.758;8.888;2022-09-14T01:20:27;19.90;99.90
7708;DHT22;3896;48.758;8.888;2022-09-14T01:31:12;19.80;99.90
7708;DHT22;3896;48.758;8.888;2022-09-14T01:33:46;19.80;99.90
7708;DHT22;3896;48.758;8.888;2022-09-14T01:36:16;19.70;99.90
7708;DHT22;3896;48.758;8.888;2022-09-14T01:38:47;19.70;99.90
7708;DHT22;3896;48.758;8.888;2022-09-14T01:41:16;19.70;99.90
7708;DHT22;3896;48.758;8.888;2022-09-14T01:43:47;19.70;99.90
7708;DHT22;3896;48.758;8.888;2022-09-14T01:46:21;19.70;99.90
7708;DHT22;3896;48.758;8.888;2022-09-14T01:51:57;19.70;99.90
7708;DHT22;3896;48.758;8.888;2022-09-14T01:54:25;19.70;99.90
7708;DHT22;3896;48.758;8.888;2022-09-14T01:57:01;19.70;99.90
7708;DHT22;3896;48.758;8.888;2022-09-14T01:59:32;19.60;99.90
7708;DHT22;3896;48.758;8.888;2022-09-14T02:05:12;19.60;99.90
7708;DHT22;3896;48.758;8.888;2022-09-14T02:07:40;19.50;99.90
7708;DHT22;3896;48.758;8.888;2022-09-14T02:10:10;19.50;99.90
7708;DHT22;3896;48.758;8.888;2022-09-14T02:12:36;19.50;99.90
7708;DHT22;3896;48.758;8.888;2022-09-14T02:15:03;19.50;99.90
7708;DHT22;3896;48.758;8.888;2022-09-14T02:17:30;19.50;99.90
7708;DHT22;3896;48.758;8.888;2022-09-14T02:20:00;19.50;99.90
7708;DHT22;3896;48.758;8.888;2022-09-14T02:22:28;19.50;99.90
7708;DHT22;3896;48.758;8.888;2022-09-14T02:24:54;19.50;99.90
7708;DHT22;3896;48.758;8.888;2022-09-14T02:27:20;19.50;99.90
7708;DHT22;3896;48.758;8.888;2022-09-14T02:29:46;19.50;99.90
7708;DHT22;3896;48.758;8.888;2022-09-14T02:32:41;19.50;99.90
7708;DHT22;3896;48.758;8.888;2022-09-14T02:35:27;19.40;99.90
7708;DHT22;3896;48.758;8.888;2022-09-14T02:38:00;19.40;99.90
7708;DHT22;3896;48.758;8.888;2022-09-14T02:40:36;19.40;99.90
7708;DHT22;3896;48.758;8.888;2022-09-14T02:43:05;19.40;99.90
7708;DHT22;3896;48.758;8.888;2022-09-14T02:53:33;19.40;99.90
7708;DHT22;3896;48.758;8.888;2022-09-14T02:56:05;19.40;99.90
7708;DHT22;3896;48.758;8.888;2022-09-14T02:58:40;19.40;99.90
7708;DHT22;3896;48.758;8.888;2022-09-14T03:01:08;19.40;99.90
7708;DHT22;3896;48.758;8.888;2022-09-14T03:03:35;19.40;99.90
7708;DHT22;3896;48.758;8.888;2022-09-14T03:06:01;19.40;99.90
7708;DHT22;3896;48.758;8.888;2022-09-14T03:08:27;19.40;99.90
7708;DHT22;3896;48.758;8.888;2022-09-14T03:10:53;19.40;99.90
7708;DHT22;3896;48.758;8.888;2022-09-14T03:13:19;19.40;99.90
7708;DHT22;3896;48.758;8.888;2022-09-14T03:15:45;19.40;99.90
7708;DHT22;3896;48.758;8.888;2022-09-14T03:18:11;19.40;99.90
7708;DHT22;3896;48.758;8.888;2022-09-14T03:20:38;19.40;99.90
7708;DHT22;3896;48.758;8.888;2022-09-14T03:23:04;19.30;99.90
7708;DHT22;3896;48.758;8.888;2022-09-14T03:25:36;19.40;99.90
7708;DHT22;3896;48.758;8.888;2022-09-14T03:28:03;19.30;99.90
7708;DHT22;3896;48.758;8.888;2022-09-14T03:30:30;19.30;99.90
7708;DHT22;3896;48.758;8.888;2022-09-14T03:32:57;19.30;99.90
7708;DHT22;3896;48.758;8.888;2022-09-14T03:35:23;19.30;99.90
7708;DHT22;3896;48.758;8.888;2022-09-14T03:37:49;19.30;99.90
7708;DHT22;3896;48.758;8.888;2022-09-14T03:40:16;19.30;99.90
7708;DHT22;3896;48.758;8.888;2022-09-14T03:42:48;19.30;99.90
7708;DHT22;3896;48.758;8.888;2022-09-14T03:45:15;19.20;99.90
7708;DHT22;3896;48.758;8.888;2022-09-14T03:47:41;19.20;99.90
7708;DHT22;3896;48.758;8.888;2022-09-14T03:50:09;19.20;99.90
7708;DHT22;3896;48.758;8.888;2022-09-14T03:52:36;19.20;99.90
7708;DHT22;3896;48.758;8.888;2022-09-14T03:55:03;19.20;99.90
7708;DHT22;3896;48.758;8.888;2022-09-14T03:57:30;19.20;99.90
7708;DHT22;3896;48.758;8.888;2022-09-14T03:59:55;19.20;99.90
7708;DHT22;3896;48.758;8.888;2022-09-14T04:02:21;19.20;99.90
7708;DHT22;3896;48.758;8.888;2022-09-14T04:04:47;19.20;99.90
7708;DHT22;3896;48.758;8.888;2022-09-14T04:07:14;19.20;99.90
7708;DHT22;3896;48.758;8.888;2022-09-14T04:09:41;19.20;99.90
7708;DHT22;3896;48.758;8.888;2022-09-14T04:12:07;19.20;99.90
7708;DHT22;3896;48.758;8.888;2022-09-14T04:14:33;19.20;99.90
7708;DHT22;3896;48.758;8.888;2022-09-14T04:16:58;19.20;99.90
7708;DHT22;3896;48.758;8.888;2022-09-14T04:19:24;19.20;99.90
7708;DHT22;3896;48.758;8.888;2022-09-14T04:21:50;19.20;99.90
7708;DHT22;3896;48.758;8.888;2022-09-14T04:24:15;19.20;99.90
7708;DHT22;3896;48.758;8.888;2022-09-14T04:26:42;19.20;99.90
7708;DHT22;3896;48.758;8.888;2022-09-14T04:29:09;19.20;99.90
7708;DHT22;3896;48.758;8.888;2022-09-14T04:31:35;19.20;99.90
7708;DHT22;3896;48.758;8.888;2022-09-14T04:34:01;19.20;99.90
7708;DHT22;3896;48.758;8.888;2022-09-14T04:36:28;19.20;99.90
7708;DHT22;3896;48.758;8.888;2022-09-14T04:38:57;19.20;99.90
7708;DHT22;3896;48.758;8.888;2022-09-14T04:41:23;19.10;99.90
7708;DHT22;3896;48.758;8.888;2022-09-14T04:43:50;19.10;99.90
7708;DHT22;3896;48.758;8.888;2022-09-14T04:46:22;19.10;99.90
7708;DHT22;3896;48.758;8.888;2022-09-14T04:48:49;19.10;99.90
7708;DHT22;3896;48.758;8.888;2022-09-14T04:51:20;19.10;99.90
7708;DHT22;3896;48.758;8.888;2022-09-14T04:53:48;19.10;99.90
7708;DHT22;3896;48.758;8.888;2022-09-14T04:56:18;19.10;99.90
7708;DHT22;3896;48.758;8.888;2022-09-14T04:58:51;19.10;99.90
7708;DHT22;3896;48.758;8.888;2022-09-14T05:01:21;19.10;99.90
7708;DHT22;3896;48.758;8.888;2022-09-14T05:03:49;19.10;99.90
7708;DHT22;3896;48.758;8.888;2022-09-14T05:06:17;19.10;99.90
7708;DHT22;3896;48.758;8.888;2022-09-14T05:08:44;19.10;99.90
7708;DHT22;3896;48.758;8.888;2022-09-14T05:11:13;19.10;99.90
7708;DHT22;3896;48.758;8.888;2022-09-14T05:13:39;19.10;99.90
7708;DHT22;3896;48.758;8.888;2022-09-14T05:16:13;19.10;99.90
7708;DHT22;3896;48.758;8.888;2022-09-14T05:18:40;19.10;99.90
7708;DHT22;3896;48.758;8.888;2022-09-14T05:21:08;19.10;99.90
7708;DHT22;3896;48.758;8.888;2022-09-14T05:23:35;19.10;99.90
7708;DHT22;3896;48.758;8.888;2022-09-14T05:26:01;19.20;99.90
7708;DHT22;3896;48.758;8.888;2022-09-14T05:28:28;19.20;99.90
7708;DHT22;3896;48.758;8.888;2022-09-14T05:30:53;19.20;99.90
7708;DHT22;3896;48.758;8.888;2022-09-14T05:33:20;19.20;99.90
7708;DHT22;3896;48.758;8.888;2022-09-14T05:35:46;19.20;99.90
7708;DHT22;3896;48.758;8.888;2022-09-14T05:38:12;19.30;99.90
7708;DHT22;3896;48.758;8.888;2022-09-14T05:40:38;19.30;99.90
7708;DHT22;3896;48.758;8.888;2022-09-14T05:43:04;19.30;99.90
7708;DHT22;3896;48.758;8.888;2022-09-14T05:45:29;19.30;99.90
7708;DHT22;3896;48.758;8.888;2022-09-14T05:47:59;19.40;99.90
7708;DHT22;3896;48.758;8.888;2022-09-14T05:50:26;19.40;99.90
7708;DHT22;3896;48.758;8.888;2022-09-14T05:52:52;19.40;99.90
7708;DHT22;3896;48.758;8.888;2022-09-14T05:58:02;19.50;99.90
7708;DHT22;3896;48.758;8.888;2022-09-14T06:00:28;19.50;99.90
7708;DHT22;3896;48.758;8.888;2022-09-14T06:02:54;19.50;99.90
7708;DHT22;3896;48.758;8.888;2022-09-14T06:05:20;19.60;99.90
7708;DHT22;3896;48.758;8.888;2022-09-14T06:07:51;19.60;99.90
7708;DHT22;3896;48.758;8.888;2022-09-14T06:10:17;19.60;99.90
7708;DHT22;3896;48.758;8.888;2022-09-14T06:12:43;19.70;99.90
7708;DHT22;3896;48.758;8.888;2022-09-14T06:15:09;19.70;99.90
7708;DHT22;3896;48.758;8.888;2022-09-14T06:17:35;19.70;99.90
7708;DHT22;3896;48.758;8.888;2022-09-14T06:20:02;19.70;99.90
7708;DHT22;3896;48.758;8.888;2022-09-14T06:22:27;19.80;99.90
7708;DHT22;3896;48.758;8.888;2022-09-14T06:24:53;19.80;99.90
7708;DHT22;3896;48.758;8.888;2022-09-14T06:27:19;19.80;99.90
7708;DHT22;3896;48.758;8.888;2022-09-14T06:29:44;19.80;99.90
7708;DHT22;3896;48.758;8.888;2022-09-14T06:32:16;19.90;99.90
7708;DHT22;3896;48.758;8.888;2022-09-14T06:34:42;19.90;99.90
7708;DHT22;3896;48.758;8.888;2022-09-14T06:37:08;19.90;99.90
7708;DHT22;3896;48.758;8.888;2022-09-14T06:39:33;19.90;99.90
7708;DHT22;3896;48.758;8.888;2022-09-14T06:41:59;20.00;99.90
7708;DHT22;3896;48.758;8.888;2022-09-14T06:44:25;20.00;99.90
7708;DHT22;3896;48.758;8.888;2022-09-14T06:46:50;20.10;99.90
7708;DHT22;3896;48.758;8.888;2022-09-14T06:49:16;20.10;99.90
7708;DHT22;3896;48.758;8.888;2022-09-14T06:51:46;20.10;99.90
7708;DHT22;3896;48.758;8.888;2022-09-14T06:54:13;20.20;99.90
7708;DHT22;3896;48.758;8.888;2022-09-14T06:56:43;20.20;99.90
7708;DHT22;3896;48.758;8.888;2022-09-14T06:59:11;20.20;99.90
7708;DHT22;3896;48.758;8.888;2022-09-14T07:01:37;20.30;99.90
7708;DHT22;3896;48.758;8.888;2022-09-14T07:04:03;20.40;99.90
7708;DHT22;3896;48.758;8.888;2022-09-14T07:06:32;20.40;99.90
7708;DHT22;3896;48.758;8.888;2022-09-14T07:09:03;20.50;99.90
7708;DHT22;3896;48.758;8.888;2022-09-14T07:11:29;20.50;99.90
7708;DHT22;3896;48.758;8.888;2022-09-14T07:13:55;20.50;99.90
7708;DHT22;3896;48.758;8.888;2022-09-14T07:16:25;20.60;99.90
7708;DHT22;3896;48.758;8.888;2022-09-14T07:18:59;20.70;99.90
7708;DHT22;3896;48.758;8.888;2022-09-14T07:21:26;20.60;99.90
7708;DHT22;3896;48.758;8.888;2022-09-14T07:23:51;20.70;99.90
7708;DHT22;3896;48.758;8.888;2022-09-14T07:26:29;20.80;99.90
7708;DHT22;3896;48.758;8.888;2022-09-14T07:29:05;20.80;99.90
7708;DHT22;3896;48.758;8.888;2022-09-14T07:31:40;20.80;99.90
7708;DHT22;3896;48.758;8.888;2022-09-14T07:34:06;20.90;99.90
7708;DHT22;3896;48.758;8.888;2022-09-14T07:36:34;20.90;99.90
7708;DHT22;3896;48.758;8.888;2022-09-14T07:39:02;21.00;99.90
7708;DHT22;3896;48.758;8.888;2022-09-14T07:41:29;21.00;99.90
7708;DHT22;3896;48.758;8.888;2022-09-14T07:43:57;21.10;99.90
7708;DHT22;3896;48.758;8.888;2022-09-14T07:46:25;21.20;99.90
7708;DHT22;3896;48.758;8.888;2022-09-14T07:48:56;21.20;99.90
7708;DHT22;3896;48.758;8.888;2022-09-14T07:51:23;21.30;99.90
7708;DHT22;3896;48.758;8.888;2022-09-14T07:53:49;21.30;99.90
7708;DHT22;3896;48.758;8.888;2022-09-14T07:56:15;21.50;99.90
7708;DHT22;3896;48.758;8.888;2022-09-14T07:58:42;21.50;99.90
7708;DHT22;3896;48.758;8.888;2022-09-14T08:01:10;21.60;99.90
7708;DHT22;3896;48.758;8.888;2022-09-14T08:03:37;21.70;99.90
7708;DHT22;3896;48.758;8.888;2022-09-14T08:06:11;21.80;99.90
7708;DHT22;3896;48.758;8.888;2022-09-14T08:08:40;21.90;99.90
7708;DHT22;3896;48.758;8.888;2022-09-14T08:11:15;21.90;99.90
7708;DHT22;3896;48.758;8.888;2022-09-14T08:13:44;22.00;99.90
7708;DHT22;3896;48.758;8.888;2022-09-14T08:16:10;22.10;99.90
7708;DHT22;3896;48.758;8.888;2022-09-14T08:18:37;22.20;99.90
7708;DHT22;3896;48.758;8.888;2022-09-14T08:21:08;22.30;99.90
7708;DHT22;3896;48.758;8.888;2022-09-14T08:23:34;22.30;99.90
7708;DHT22;3896;48.758;8.888;2022-09-14T08:28:33;22.50;99.90
7708;DHT22;3896;48.758;8.888;2022-09-14T08:31:05;22.60;99.90
7708;DHT22;3896;48.758;8.888;2022-09-14T08:33:32;22.60;99.90
7708;DHT22;3896;48.758;8.888;2022-09-14T08:35:58;22.70;99.90
7708;DHT22;3896;48.758;8.888;2022-09-14T08:38:24;22.80;99.90
7708;DHT22;3896;48.758;8.888;2022-09-14T08:40:50;22.90;99.90
7708;DHT22;3896;48.758;8.888;2022-09-14T08:43:17;22.90;99.90
7708;DHT22;3896;48.758;8.888;2022-09-14T08:45:44;23.00;99.90
7708;DHT22;3896;48.758;8.888;2022-09-14T08:48:34;23.00;99.90
7708;DHT22;3896;48.758;8.888;2022-09-14T08:51:00;23.00;99.90
7708;DHT22;3896;48.758;8.888;2022-09-14T08:53:27;23.10;99.90
7708;DHT22;3896;48.758;8.888;2022-09-14T08:56:07;23.20;99.90
7708;DHT22;3896;48.758;8.888;2022-09-14T09:07:17;23.60;99.90
7708;DHT22;3896;48.758;8.888;2022-09-14T09:09:50;23.70;99.90
7708;DHT22;3896;48.758;8.888;2022-09-14T09:15:28;24.00;99.90
7708;DHT22;3896;48.758;8.888;2022-09-14T09:18:01;24.20;99.90
7708;DHT22;3896;48.758;8.888;2022-09-14T09:20:32;24.30;99.90
7708;DHT22;3896;48.758;8.888;2022-09-14T09:28:32;24.70;99.90
7708;DHT22;3896;48.758;8.888;2022-09-14T09:31:03;24.80;99.90
7708;DHT22;3896;48.758;8.888;2022-09-14T09:33:31;25.00;99.90
7708;DHT22;3896;48.758;8.888;2022-09-14T09:35:57;25.10;99.90
7708;DHT22;3896;48.758;8.888;2022-09-14T09:38:27;25.20;99.90
7708;DHT22;3896;48.758;8.888;2022-09-14T09:41:14;25.40;99.90
7708;DHT22;3896;48.758;8.888;2022-09-14T09:44:07;25.50;99.90
7708;DHT22;3896;48.758;8.888;2022-09-14T09:46:54;25.70;99.90
7708;DHT22;3896;48.758;8.888;2022-09-14T09:49:44;25.80;99.90
7708;DHT22;3896;48.758;8.888;2022-09-14T09:52:14;25.90;99.90
7708;DHT22;3896;48.758;8.888;2022-09-14T09:54:48;26.00;99.90
7708;DHT22;3896;48.758;8.888;2022-09-14T09:57:31;26.10;99.00
7708;DHT22;3896;48.758;8.888;2022-09-14T10:00:13;26.10;98.40
7708;DHT22;3896;48.758;8.888;2022-09-14T10:02:42;26.20;98.20
7708;DHT22;3896;48.758;8.888;2022-09-14T10:07:39;26.40;97.00
7708;DHT22;3896;48.758;8.888;2022-09-14T10:10:12;26.50;96.60
7708;DHT22;3896;48.758;8.888;2022-09-14T10:12:45;26.50;95.20
7708;DHT22;3896;48.758;8.888;2022-09-14T10:15:15;26.60;94.30
7708;DHT22;3896;48.758;8.888;2022-09-14T10:20:28;26.60;93.50
7708;DHT22;3896;48.758;8.888;2022-09-14T10:22:54;26.70;93.90
7708;DHT22;3896;48.758;8.888;2022-09-14T10:25:23;26.80;93.50
7708;DHT22;3896;48.758;8.888;2022-09-14T10:27:57;26.80;93.30
7708;DHT22;3896;48.758;8.888;2022-09-14T10:30:26;26.90;92.40
7708;DHT22;3896;48.758;8.888;2022-09-14T10:33:00;26.90;91.30
7708;DHT22;3896;48.758;8.888;2022-09-14T10:40:58;27.10;90.50
7708;DHT22;3896;48.758;8.888;2022-09-14T10:46:29;27.10;90.70
7708;DHT22;3896;48.758;8.888;2022-09-14T10:51:33;27.20;90.10
7708;DHT22;3896;48.758;8.888;2022-09-14T10:54:17;27.30;89.10
7708;DHT22;3896;48.758;8.888;2022-09-14T11:03:27;27.40;87.80
7708;DHT22;3896;48.758;8.888;2022-09-14T11:08:50;27.50;86.90
7708;DHT22;3896;48.758;8.888;2022-09-14T11:11:29;27.60;87.20
7708;DHT22;3896;48.758;8.888;2022-09-14T11:21:55;28.00;84.50
7708;DHT22;3896;48.758;8.888;2022-09-14T11:24:39;28.00;82.60
7708;DHT22;3896;48.758;8.888;2022-09-14T11:27:38;28.10;80.00
7708;DHT22;3896;48.758;8.888;2022-09-14T11:35:14;28.40;79.20
7708;DHT22;3896;48.758;8.888;2022-09-14T11:37:58;28.40;77.10
7708;DHT22;3896;48.758;8.888;2022-09-14T11:45:54;28.60;74.60
7708;DHT22;3896;48.758;8.888;2022-09-14T11:48:49;28.60;73.90
7708;DHT22;3896;48.758;8.888;2022-09-14T11:51:20;28.60;74.30
7708;DHT22;3896;48.758;8.888;2022-09-14T11:53:47;28.70;72.60
7708;DHT22;3896;48.758;8.888;2022-09-14T11:56:34;28.70;72.10
7708;DHT22;3896;48.758;8.888;2022-09-14T11:59:03;28.70;72.70
7708;DHT22;3896;48.758;8.888;2022-09-14T12:01:43;28.70;71.50
7708;DHT22;3896;48.758;8.888;2022-09-14T12:04:11;28.70;71.70
7708;DHT22;3896;48.758;8.888;2022-09-14T12:17:21;28.50;71.40
7708;DHT22;3896;48.758;8.888;2022-09-14T12:19:54;28.40;71.60
7708;DHT22;3896;48.758;8.888;2022-09-14T12:22:34;28.40;71.60
7708;DHT22;3896;48.758;8.888;2022-09-14T12:25:18;28.30;73.30
7708;DHT22;3896;48.758;8.888;2022-09-14T12:27:46;28.20;74.40
7708;DHT22;3896;48.758;8.888;2022-09-14T12:33:00;28.00;76.40
7708;DHT22;3896;48.758;8.888;2022-09-14T12:59:28;26.50;82.40
7708;DHT22;3896;48.758;8.888;2022-09-14T13:04:57;26.20;83.40
7708;DHT22;3896;48.758;8.888;2022-09-14T13:07:31;26.00;83.80
7708;DHT22;3896;48.758;8.888;2022-09-14T13:09:58;25.90;84.70
7708;DHT22;3896;48.758;8.888;2022-09-14T13:12:26;25.70;83.70
7708;DHT22;3896;48.758;8.888;2022-09-14T13:14:55;25.60;84.20
7708;DHT22;3896;48.758;8.888;2022-09-14T13:17:22;25.50;84.10
7708;DHT22;3896;48.758;8.888;2022-09-14T13:19:59;25.40;84.90
7708;DHT22;3896;48.758;8.888;2022-09-14T13:22:29;25.20;85.50
7708;DHT22;3896;48.758;8.888;2022-09-14T13:24:57;25.00;86.60
7708;DHT22;3896;48.758;8.888;2022-09-14T13:27:23;24.90;87.20
7708;DHT22;3896;48.758;8.888;2022-09-14T13:32:24;24.70;88.00
7708;DHT22;3896;48.758;8.888;2022-09-14T13:34:50;24.60;90.00
7708;DHT22;3896;48.758;8.888;2022-09-14T13:37:18;24.50;90.10
7708;DHT22;3896;48.758;8.888;2022-09-14T13:39:49;24.40;90.70
7708;DHT22;3896;48.758;8.888;2022-09-14T13:42:15;24.30;91.20
7708;DHT22;3896;48.758;8.888;2022-09-14T13:44:43;24.20;92.20
7708;DHT22;3896;48.758;8.888;2022-09-14T13:47:14;24.20;92.70
7708;DHT22;3896;48.758;8.888;2022-09-14T13:49:42;24.10;93.40
7708;DHT22;3896;48.758;8.888;2022-09-14T13:52:24;24.00;94.30
7708;DHT22;3896;48.758;8.888;2022-09-14T13:57:33;23.90;95.80
7708;DHT22;3896;48.758;8.888;2022-09-14T14:00:20;23.80;96.30
7708;DHT22;3896;48.758;8.888;2022-09-14T14:02:53;23.70;96.20
7708;DHT22;3896;48.758;8.888;2022-09-14T14:05:26;23.60;97.60
7708;DHT22;3896;48.758;8.888;2022-09-14T14:07:54;23.60;98.50
7708;DHT22;3896;48.758;8.888;2022-09-14T14:10:31;23.50;99.40
7708;DHT22;3896;48.758;8.888;2022-09-14T14:12:59;23.40;99.90
7708;DHT22;3896;48.758;8.888;2022-09-14T14:17:50;23.40;99.90
7708;DHT22;3896;48.758;8.888;2022-09-14T14:25:32;23.40;99.90
7708;DHT22;3896;48.758;8.888;2022-09-14T14:28:22;23.40;99.90
7708;DHT22;3896;48.758;8.888;2022-09-14T14:30:48;23.40;99.90
7708;DHT22;3896;48.758;8.888;2022-09-14T14:33:16;23.40;99.90
7708;DHT22;3896;48.758;8.888;2022-09-14T14:35:46;23.30;99.90
7708;DHT22;3896;48.758;8.888;2022-09-14T14:38:13;23.30;99.90
7708;DHT22;3896;48.758;8.888;2022-09-14T14:40:39;23.30;99.90
7708;DHT22;3896;48.758;8.888;2022-09-14T14:43:05;23.30;99.90
7708;DHT22;3896;48.758;8.888;2022-09-14T14:45:33;23.20;99.90
7708;DHT22;3896;48.758;8.888;2022-09-14T14:48:00;23.20;99.90
7708;DHT22;3896;48.758;8.888;2022-09-14T14:50:31;23.20;99.90
7708;DHT22;3896;48.758;8.888;2022-09-14T14:52:59;23.10;99.90
7708;DHT22;3896;48.758;8.888;2022-09-14T14:55:26;23.10;99.90
7708;DHT22;3896;48.758;8.888;2022-09-14T14:57:58;23.10;99.90
7708;DHT22;3896;48.758;8.888;2022-09-14T15:00:30;23.10;99.90
7708;DHT22;3896;48.758;8.888;2022-09-14T15:02:57;23.00;99.90
7708;DHT22;3896;48.758;8.888;2022-09-14T15:05:24;23.00;99.90
7708;DHT22;3896;48.758;8.888;2022-09-14T15:07:50;22.90;99.90
7708;DHT22;3896;48.758;8.888;2022-09-14T15:10:21;22.90;99.90
7708;DHT22;3896;48.758;8.888;2022-09-14T15:12:47;22.80;99.90
7708;DHT22;3896;48.758;8.888;2022-09-14T15:15:18;22.80;99.90
7708;DHT22;3896;48.758;8.888;2022-09-14T15:17:44;22.70;99.90
7708;DHT22;3896;48.758;8.888;2022-09-14T15:20:10;22.60;99.90
7708;DHT22;3896;48.758;8.888;2022-09-14T15:22:36;22.60;99.90
7708;DHT22;3896;48.758;8.888;2022-09-14T15:25:03;22.60;99.90
7708;DHT22;3896;48.758;8.888;2022-09-14T15:27:29;22.60;99.90
7708;DHT22;3896;48.758;8.888;2022-09-14T15:29:54;22.50;99.90
7708;DHT22;3896;48.758;8.888;2022-09-14T15:32:20;22.50;99.90
7708;DHT22;3896;48.758;8.888;2022-09-14T15:34:46;22.50;99.90
7708;DHT22;3896;48.758;8.888;2022-09-14T15:37:11;22.50;99.90
7708;DHT22;3896;48.758;8.888;2022-09-14T15:39:37;22.50;99.90
7708;DHT22;3896;48.758;8.888;2022-09-14T15:42:03;22.50;99.90
7708;DHT22;3896;48.758;8.888;2022-09-14T15:44:29;22.50;99.90
7708;DHT22;3896;48.758;8.888;2022-09-14T15:46:56;22.50;99.90
7708;DHT22;3896;48.758;8.888;2022-09-14T15:49:23;22.60;99.90
7708;DHT22;3896;48.758;8.888;2022-09-14T15:51:51;22.60;99.90
7708;DHT22;3896;48.758;8.888;2022-09-14T15:54:18;22.60;99.90
7708;DHT22;3896;48.758;8.888;2022-09-14T15:56:53;22.60;99.90
7708;DHT22;3896;48.758;8.888;2022-09-14T15:59:20;22.60;99.90
7708;DHT22;3896;48.758;8.888;2022-09-14T16:01:46;22.50;99.90
7708;DHT22;3896;48.758;8.888;2022-09-14T16:04:11;22.50;99.90
7708;DHT22;3896;48.758;8.888;2022-09-14T16:06:37;22.50;99.90
7708;DHT22;3896;48.758;8.888;2022-09-14T16:09:05;22.50;99.90
7708;DHT22;3896;48.758;8.888;2022-09-14T16:11:32;22.50;99.90
7708;DHT22;3896;48.758;8.888;2022-09-14T16:13:58;22.50;99.90
7708;DHT22;3896;48.758;8.888;2022-09-14T16:16:25;22.40;99.90
7708;DHT22;3896;48.758;8.888;2022-09-14T16:18:50;22.40;99.90
7708;DHT22;3896;48.758;8.888;2022-09-14T16:21:21;22.40;99.90
7708;DHT22;3896;48.758;8.888;2022-09-14T16:23:54;22.40;99.90
7708;DHT22;3896;48.758;8.888;2022-09-14T16:26:22;22.40;99.90
7708;DHT22;3896;48.758;8.888;2022-09-14T16:28:48;22.30;99.90
7708;DHT22;3896;48.758;8.888;2022-09-14T16:31:17;22.30;99.90
7708;DHT22;3896;48.758;8.888;2022-09-14T16:33:45;22.30;99.90
7708;DHT22;3896;48.758;8.888;2022-09-14T16:36:17;22.30;99.90
7708;DHT22;3896;48.758;8.888;2022-09-14T16:38:43;22.30;99.90
7708;DHT22;3896;48.758;8.888;2022-09-14T16:41:10;22.30;99.90
7708;DHT22;3896;48.758;8.888;2022-09-14T16:43:37;22.30;99.90
7708;DHT22;3896;48.758;8.888;2022-09-14T16:48:37;22.30;99.90
7708;DHT22;3896;48.758;8.888;2022-09-14T16:51:03;22.30;99.90
7708;DHT22;3896;48.758;8.888;2022-09-14T16:53:31;22.30;99.90
7708;DHT22;3896;48.758;8.888;2022-09-14T16:58:31;22.20;99.90
7708;DHT22;3896;48.758;8.888;2022-09-14T17:01:13;22.20;99.90
7708;DHT22;3896;48.758;8.888;2022-09-14T17:03:40;22.20;99.90
7708;DHT22;3896;48.758;8.888;2022-09-14T17:06:16;22.10;99.90
7708;DHT22;3896;48.758;8.888;2022-09-14T17:08:42;22.10;99.90
7708;DHT22;3896;48.758;8.888;2022-09-14T17:11:08;22.10;99.90
7708;DHT22;3896;48.758;8.888;2022-09-14T17:13:35;22.10;99.90
7708;DHT22;3896;48.758;8.888;2022-09-14T17:16:01;22.10;99.90
7708;DHT22;3896;48.758;8.888;2022-09-14T17:18:27;22.10;99.90
7708;DHT22;3896;48.758;8.888;2022-09-14T17:21:04;22.10;99.90
7708;DHT22;3896;48.758;8.888;2022-09-14T17:23:31;22.10;99.90
7708;DHT22;3896;48.758;8.888;2022-09-14T17:25:57;22.10;99.90
7708;DHT22;3896;48.758;8.888;2022-09-14T17:28:25;22.10;99.90
7708;DHT22;3896;48.758;8.888;2022-09-14T17:30:53;22.00;99.90
7708;DHT22;3896;48.758;8.888;2022-09-14T17:33:20;22.00;99.90
7708;DHT22;3896;48.758;8.888;2022-09-14T17:35:47;22.00;99.90
7708;DHT22;3896;48.758;8.888;2022-09-14T17:38:14;21.90;99.90
7708;DHT22;3896;48.758;8.888;2022-09-14T17:40:39;21.90;99.90
7708;DHT22;3896;48.758;8.888;2022-09-14T17:43:05;21.80;99.90
7708;DHT22;3896;48.758;8.888;2022-09-14T17:45:31;21.80;99.90
7708;DHT22;3896;48.758;8.888;2022-09-14T17:47:57;21.70;99.90
7708;DHT22;3896;48.758;8.888;2022-09-14T17:50:22;21.70;99.90
7708;DHT22;3896;48.758;8.888;2022-09-14T17:52:51;21.60;99.90
7708;DHT22;3896;48.758;8.888;2022-09-14T17:55:17;21.60;99.90
7708;DHT22;3896;48.758;8.888;2022-09-14T17:57:43;21.50;99.90
7708;DHT22;3896;48.758;8.888;2022-09-14T18:00:10;21.50;99.90
7708;DHT22;3896;48.758;8.888;2022-09-14T18:02:35;21.50;99.90
7708;DHT22;3896;48.758;8.888;2022-09-14T18:05:01;21.40;99.90
7708;DHT22;3896;48.758;8.888;2022-09-14T18:07:27;21.40;99.90
7708;DHT22;3896;48.758;8.888;2022-09-14T18:09:55;21.30;99.90
7708;DHT22;3896;48.758;8.888;2022-09-14T18:12:20;21.30;99.90
7708;DHT22;3896;48.758;8.888;2022-09-14T18:14:46;21.20;99.90
7708;DHT22;3896;48.758;8.888;2022-09-14T18:17:12;21.20;99.90
7708;DHT22;3896;48.758;8.888;2022-09-14T18:19:38;21.10;99.90
7708;DHT22;3896;48.758;8.888;2022-09-14T18:22:04;21.10;99.90
7708;DHT22;3896;48.758;8.888;2022-09-14T18:24:30;21.10;99.90
7708;DHT22;3896;48.758;8.888;2022-09-14T18:26:56;21.00;99.90
7708;DHT22;3896;48.758;8.888;2022-09-14T18:29:22;21.00;99.90
7708;DHT22;3896;48.758;8.888;2022-09-14T18:31:49;21.00;99.90
7708;DHT22;3896;48.758;8.888;2022-09-14T18:34:15;21.00;99.90
7708;DHT22;3896;48.758;8.888;2022-09-14T18:36:41;21.00;99.90
7708;DHT22;3896;48.758;8.888;2022-09-14T18:39:07;21.00;99.90
7708;DHT22;3896;48.758;8.888;2022-09-14T18:41:32;20.90;99.90
7708;DHT22;3896;48.758;8.888;2022-09-14T18:43:59;20.90;99.90
7708;DHT22;3896;48.758;8.888;2022-09-14T18:46:26;20.90;99.90
7708;DHT22;3896;48.758;8.888;2022-09-14T18:48:54;20.90;99.90
7708;DHT22;3896;48.758;8.888;2022-09-14T18:51:20;20.90;99.90
7708;DHT22;3896;48.758;8.888;2022-09-14T18:53:46;20.90;99.90
7708;DHT22;3896;48.758;8.888;2022-09-14T18:56:15;20.90;99.90